This is the latest recevied weather packets stored in our database for station/object F5OZP-13. If no packets are shown the sender has not sent any weather packets the latest 10 day(s).
| Time | Temp. | Humidity | Pressure | Rain* | Wind** | Luminosity | Snow |
|---|---|---|---|---|---|---|---|
| 1778049181 | 15° C | 99% | 1013.4 hPa | - | - | 0 W/m² | - |
| 1778048875 | 15.56° C | 99% | 1013.4 hPa | - | - | 0 W/m² | - |
| 1778048565 | 15.56° C | 99% | 1013.5 hPa | - | - | 0 W/m² | - |
| 1778048257 | 15.56° C | 99% | 1013.5 hPa | - | - | 0 W/m² | - |
| 1778047949 | 15.56° C | 99% | 1013.5 hPa | - | - | 0 W/m² | - |
| 1778047654 | 15.56° C | 99% | 1013.5 hPa | - | - | 0 W/m² | - |
| 1778047337 | 15.56° C | 99% | 1013.5 hPa | - | - | 0 W/m² | - |
| 1778015860 | 12.78° C | 99% | 1015.2 hPa | - | - | 0 W/m² | - |
| 1778015552 | 12.78° C | 99% | 1015.1 hPa | - | - | 0 W/m² | - |
| 1778015249 | 12.78° C | 99% | 1015.2 hPa | - | - | 0 W/m² | - |
| 1778014940 | 12.78° C | 99% | 1015.3 hPa | - | - | 0 W/m² | - |
| 1778014640 | 12.78° C | 99% | 1015.3 hPa | - | - | 0 W/m² | - |
| 1778014324 | 12.78° C | 99% | 1015.2 hPa | - | - | 0 W/m² | - |
| 1778014016 | 12.78° C | 99% | 1015.2 hPa | - | - | 0 W/m² | - |
| 1778013708 | 12.78° C | 99% | 1015.3 hPa | - | - | 0 W/m² | - |
| 1778013399 | 12.78° C | 99% | 1015.3 hPa | - | - | 0 W/m² | - |
| 1778013091 | 12.78° C | 99% | 1015.2 hPa | - | - | 0 W/m² | - |
| 1778012791 | 12.78° C | 99% | 1015.2 hPa | - | - | 0 W/m² | - |
| 1778012475 | 12.22° C | 99% | 1015.2 hPa | - | - | 0 W/m² | - |
| 1778012166 | 12.22° C | 99% | 1015 hPa | - | - | 0 W/m² | - |
| 1778011858 | 13.33° C | 99% | 1015.1 hPa | - | - | 0 W/m² | - |
| 1778011555 | 12.78° C | 99% | 1015.1 hPa | - | - | 0 W/m² | - |
| 1778011247 | 12.78° C | 99% | 1015 hPa | - | - | 0 W/m² | - |
| 1778010947 | 13.33° C | 99% | 1015 hPa | - | - | 0 W/m² | - |
| 1778010630 | 13.33° C | 99% | 1014.9 hPa | - | - | 0 W/m² | - |
* Rain since midnight (hover to see other rain measurements)
** Current wind speed in m/s (hover to see current wind gust speed)